Time;durP1;ratioP1;P1;durP2;ratioP2;P2;SDS_P1;SDS_P2;PMS_P1;PMS_P2;Temp;Humidity;BMP_temperature;BMP_pressure;BME280_temperature;BME280_humidity;BME280_pressure;Samples;Min_cycle;Max_cycle;Signal;HPM_P1;HPM_P2
2021/10/27 00:01:27;;;;;;;48.40;36.23;;;;;;;;;;5015462;28;20242;-62
2021/10/27 00:03:55;;;;;;;41.27;31.33;;;;;;;;;;5015521;28;20269;-62
2021/10/27 00:06:24;;;;;;;40.10;29.97;;;;;;;;;;5015418;28;20202;-62
2021/10/27 00:08:52;;;;;;;40.57;27.77;;;;;;;;;;5015137;28;20698;-62
2021/10/27 00:11:21;;;;;;;38.13;26.37;;;;;;;;;;5015428;28;20290;-63
2021/10/27 00:13:49;;;;;;;33.63;24.83;;;;;;;;;;5015116;28;20589;-62
2021/10/27 00:16:18;;;;;;;36.33;24.23;;;;;;;;;;5015080;28;20686;-61
2021/10/27 00:18:47;;;;;;;33.07;22.83;;;;;;;;;;5015261;28;20206;-62
2021/10/27 00:21:15;;;;;;;32.27;22.63;;;;;;;;;;5015102;28;20236;-62
2021/10/27 00:23:43;;;;;;;25.73;19.37;;;;;;;;;;5014838;28;20226;-61
2021/10/27 00:26:11;;;;;;;23.93;19.00;;;;;;;;;;5015239;28;20257;-62
2021/10/27 00:28:40;;;;;;;25.43;17.57;;;;;;;;;;5014767;28;20207;-62
2021/10/27 00:31:08;;;;;;;20.27;15.83;;;;;;;;;;5015058;28;20294;-63
2021/10/27 00:33:40;;;;;;;19.93;14.90;;;;;;;;;;5014995;28;20203;-62
2021/10/27 00:36:08;;;;;;;17.80;14.07;;;;;;;;;;5014959;28;20222;-63
2021/10/27 00:38:36;;;;;;;17.77;13.77;;;;;;;;;;5014520;28;20214;-63
2021/10/27 00:41:07;;;;;;;15.87;13.13;;;;;;;;;;5014585;28;20667;-61
2021/10/27 00:43:36;;;;;;;20.33;13.27;;;;;;;;;;5014432;28;20298;-62
2021/10/27 00:46:04;;;;;;;18.43;13.30;;;;;;;;;;5014907;28;20290;-62
2021/10/27 00:48:34;;;;;;;16.17;11.73;;;;;;;;;;5014604;28;20228;-61
2021/10/27 00:51:03;;;;;;;14.70;11.03;;;;;;;;;;5014585;28;20202;-63
2021/10/27 00:53:32;;;;;;;13.70;11.30;;;;;;;;;;5013892;28;20210;-62
2021/10/27 00:56:00;;;;;;;15.40;11.00;;;;;;;;;;5014529;28;20402;-63
2021/10/27 00:58:28;;;;;;;14.90;10.80;;;;;;;;;;5014472;28;20202;-61
2021/10/27 01:00:56;;;;;;;13.47;10.77;;;;;;;;;;5014639;28;20212;-62
2021/10/27 01:03:25;;;;;;;14.43;10.73;;;;;;;;;;5014377;28;20277;-61
2021/10/27 01:05:53;;;;;;;11.93;10.23;;;;;;;;;;5014397;28;20203;-64
2021/10/27 01:08:22;;;;;;;13.03;10.33;;;;;;;;;;5013836;28;20215;-62
2021/10/27 01:10:51;;;;;;;14.00;10.87;;;;;;;;;;5014150;28;20229;-62
2021/10/27 01:13:19;;;;;;;13.87;9.93;;;;;;;;;;5014298;28;20199;-63
2021/10/27 01:15:47;;;;;;;12.60;9.90;;;;;;;;;;5013939;28;20737;-61
2021/10/27 01:18:16;;;;;;;11.90;10.40;;;;;;;;;;5013759;28;20662;-62
2021/10/27 01:20:46;;;;;;;13.00;10.13;;;;;;;;;;5013971;28;20293;-62
2021/10/27 01:23:14;;;;;;;12.10;9.83;;;;;;;;;;5013377;28;20829;-61
2021/10/27 01:25:42;;;;;;;12.47;10.23;;;;;;;;;;5013189;28;20211;-62
2021/10/27 01:28:11;;;;;;;12.37;9.90;;;;;;;;;;5014081;28;20241;-63
2021/10/27 01:30:39;;;;;;;14.07;10.43;;;;;;;;;;5013624;28;20207;-62
2021/10/27 01:33:07;;;;;;;14.43;10.50;;;;;;;;;;5013508;28;20259;-62
2021/10/27 01:35:35;;;;;;;11.67;10.03;;;;;;;;;;5013389;28;20325;-62
2021/10/27 01:38:05;;;;;;;13.67;10.60;;;;;;;;;;5013369;28;20213;-62
2021/10/27 01:40:33;;;;;;;13.30;10.10;;;;;;;;;;5013803;28;20209;-63
2021/10/27 01:43:01;;;;;;;13.53;10.30;;;;;;;;;;5013307;28;20262;-62
2021/10/27 01:45:30;;;;;;;13.50;10.07;;;;;;;;;;5013650;28;20302;-61
2021/10/27 01:47:59;;;;;;;13.73;10.73;;;;;;;;;;5013332;28;20207;-62
2021/10/27 01:50:27;;;;;;;15.27;10.87;;;;;;;;;;5013750;28;20198;-63
2021/10/27 01:52:55;;;;;;;16.40;10.70;;;;;;;;;;5013075;28;20199;-61
2021/10/27 01:55:25;;;;;;;13.63;9.70;;;;;;;;;;5013286;28;20644;-62
2021/10/27 01:57:53;;;;;;;14.13;10.30;;;;;;;;;;5013477;28;20201;-62
2021/10/27 02:00:22;;;;;;;13.40;10.20;;;;;;;;;;5013448;28;20206;-62
2021/10/27 02:02:50;;;;;;;14.47;10.30;;;;;;;;;;5013289;28;20697;-61
2021/10/27 02:05:18;;;;;;;11.83;9.93;;;;;;;;;;5013364;28;20206;-62
2021/10/27 02:07:46;;;;;;;12.10;10.10;;;;;;;;;;5013098;28;20206;-63
2021/10/27 02:10:14;;;;;;;16.00;10.23;;;;;;;;;;5013285;28;20202;-63
2021/10/27 02:12:44;;;;;;;12.47;9.73;;;;;;;;;;5013237;28;20226;-62
2021/10/27 02:15:13;;;;;;;12.97;9.80;;;;;;;;;;5013226;28;20202;-62
2021/10/27 02:17:42;;;;;;;12.30;10.00;;;;;;;;;;5013195;28;20293;-64
2021/10/27 02:20:10;;;;;;;13.23;9.67;;;;;;;;;;5013062;28;20289;-62
2021/10/27 02:22:40;;;;;;;15.23;10.07;;;;;;;;;;5012741;28;20309;-62
2021/10/27 02:25:08;;;;;;;14.10;10.30;;;;;;;;;;5013315;28;20206;-65
2021/10/27 02:27:37;;;;;;;11.80;9.70;;;;;;;;;;5013418;28;20207;-62
2021/10/27 02:30:07;;;;;;;14.37;10.37;;;;;;;;;;5013466;28;20203;-62
2021/10/27 02:32:36;;;;;;;12.80;9.47;;;;;;;;;;5013089;28;20194;-63
2021/10/27 02:35:04;;;;;;;12.33;9.80;;;;;;;;;;5012999;28;20237;-62
2021/10/27 02:37:32;;;;;;;13.37;9.93;;;;;;;;;;5016248;28;20202;-63
2021/10/27 02:40:00;;;;;;;12.90;9.63;;;;;;;;;;5017331;28;20305;-62
2021/10/27 02:42:29;;;;;;;12.33;10.20;;;;;;;;;;5017122;28;20201;-62
2021/10/27 02:44:57;;;;;;;12.07;9.73;;;;;;;;;;5017301;28;20202;-63
2021/10/27 02:47:26;;;;;;;12.83;9.93;;;;;;;;;;5017101;28;20209;-63
2021/10/27 02:49:54;;;;;;;12.00;9.63;;;;;;;;;;5016752;28;20293;-62
2021/10/27 02:52:23;;;;;;;16.20;9.77;;;;;;;;;;5016616;28;20229;-63
2021/10/27 02:54:51;;;;;;;14.93;10.93;;;;;;;;;;5016669;28;20682;-61
2021/10/27 02:57:19;;;;;;;16.03;11.17;;;;;;;;;;5017265;28;20202;-63
2021/10/27 02:59:47;;;;;;;13.63;10.87;;;;;;;;;;5018300;28;20202;-62
2021/10/27 03:02:15;;;;;;;15.33;10.47;;;;;;;;;;5016417;28;20209;-63
2021/10/27 03:04:45;;;;;;;14.47;9.87;;;;;;;;;;5016301;28;20317;-62
2021/10/27 03:07:13;;;;;;;13.90;10.20;;;;;;;;;;5016274;28;20214;-63
2021/10/27 03:09:41;;;;;;;13.83;10.37;;;;;;;;;;5016357;28;20203;-63
2021/10/27 03:12:10;;;;;;;13.43;10.50;;;;;;;;;;5016092;28;20676;-63
2021/10/27 03:14:38;;;;;;;13.60;10.70;;;;;;;;;;5016385;28;20284;-62
2021/10/27 03:17:06;;;;;;;15.40;11.40;;;;;;;;;;5016306;28;20210;-62
2021/10/27 03:19:34;;;;;;;12.87;10.13;;;;;;;;;;5016265;28;20207;-62
2021/10/27 03:22:04;;;;;;;13.97;11.30;;;;;;;;;;5016165;28;20203;-62
2021/10/27 03:24:32;;;;;;;12.37;10.63;;;;;;;;;;5015964;28;20214;-63
2021/10/27 03:27:01;;;;;;;15.60;11.67;;;;;;;;;;5016217;28;20220;-62
2021/10/27 03:29:29;;;;;;;13.33;11.00;;;;;;;;;;5016256;28;20668;-63
2021/10/27 03:31:57;;;;;;;13.37;10.70;;;;;;;;;;5016137;28;20233;-62
2021/10/27 03:34:25;;;;;;;14.57;11.60;;;;;;;;;;5015795;28;20230;-64
2021/10/27 03:36:54;;;;;;;15.13;11.23;;;;;;;;;;5015775;28;20293;-64
2021/10/27 03:39:23;;;;;;;12.87;10.63;;;;;;;;;;5015792;28;20545;-63
2021/10/27 03:41:52;;;;;;;13.13;10.73;;;;;;;;;;5015927;28;20205;-62
2021/10/27 03:44:20;;;;;;;15.50;11.50;;;;;;;;;;5015768;28;20309;-63
2021/10/27 03:46:49;;;;;;;15.70;11.57;;;;;;;;;;5015516;28;20297;-62
2021/10/27 03:49:17;;;;;;;13.70;11.17;;;;;;;;;;5014915;28;20208;-62
2021/10/27 03:51:46;;;;;;;11.97;10.37;;;;;;;;;;5015259;28;20203;-62
2021/10/27 03:54:15;;;;;;;13.87;11.50;;;;;;;;;;5015546;28;20221;-62
2021/10/27 03:56:44;;;;;;;15.70;11.33;;;;;;;;;;5015643;28;20199;-62
2021/10/27 03:59:12;;;;;;;13.50;10.80;;;;;;;;;;5015162;28;20686;-63
2021/10/27 04:01:40;;;;;;;17.87;11.60;;;;;;;;;;5015503;28;20297;-63
2021/10/27 04:04:09;;;;;;;15.03;10.80;;;;;;;;;;5015491;28;20276;-62
2021/10/27 04:06:37;;;;;;;14.23;11.53;;;;;;;;;;5015144;28;20202;-62
2021/10/27 04:09:05;;;;;;;15.47;11.23;;;;;;;;;;5015489;28;20202;-62
2021/10/27 04:11:34;;;;;;;17.23;11.97;;;;;;;;;;5015262;28;20288;-63
2021/10/27 04:14:03;;;;;;;14.60;11.20;;;;;;;;;;5015434;28;20198;-62
2021/10/27 04:16:32;;;;;;;12.87;11.20;;;;;;;;;;5015178;28;20293;-62
2021/10/27 04:19:00;;;;;;;13.37;9.87;;;;;;;;;;5015068;28;20284;-63
2021/10/27 04:21:28;;;;;;;13.63;11.00;;;;;;;;;;5015039;28;20203;-62
2021/10/27 04:23:56;;;;;;;15.67;11.23;;;;;;;;;;5014543;28;20586;-62
2021/10/27 04:26:24;;;;;;;13.50;10.90;;;;;;;;;;5015125;28;20249;-62
2021/10/27 04:28:53;;;;;;;15.63;10.50;;;;;;;;;;5014968;28;20237;-62
2021/10/27 04:31:22;;;;;;;14.03;10.17;;;;;;;;;;5014974;28;20249;-62
2021/10/27 04:33:51;;;;;;;13.73;10.67;;;;;;;;;;5014743;28;20203;-62
2021/10/27 04:36:19;;;;;;;14.70;11.23;;;;;;;;;;5014938;28;20183;-62
2021/10/27 04:38:47;;;;;;;19.63;14.40;;;;;;;;;;5014667;28;20217;-62
2021/10/27 04:41:15;;;;;;;16.00;12.07;;;;;;;;;;5014850;28;20566;-63
2021/10/27 04:43:43;;;;;;;15.10;11.20;;;;;;;;;;5014394;28;20650;-62
2021/10/27 04:46:12;;;;;;;14.03;10.40;;;;;;;;;;5014428;28;20298;-61
2021/10/27 04:48:41;;;;;;;14.87;9.83;;;;;;;;;;5014822;28;20210;-62
2021/10/27 04:51:11;;;;;;;14.60;10.40;;;;;;;;;;5014578;28;20183;-62
2021/10/27 04:53:39;;;;;;;15.03;10.60;;;;;;;;;;5014105;28;20306;-62
2021/10/27 04:56:07;;;;;;;13.77;10.93;;;;;;;;;;5014725;28;20207;-62
2021/10/27 04:58:35;;;;;;;12.80;10.07;;;;;;;;;;5014412;28;20209;-61
2021/10/27 05:01:04;;;;;;;15.60;10.87;;;;;;;;;;5014167;28;20302;-61
2021/10/27 05:03:32;;;;;;;14.13;10.00;;;;;;;;;;5014464;28;20206;-61
2021/10/27 05:06:04;;;;;;;14.50;10.10;;;;;;;;;;5014304;28;20595;-62
2021/10/27 05:08:34;;;;;;;13.13;10.90;;;;;;;;;;5013909;28;20618;-63
2021/10/27 05:11:02;;;;;;;11.97;9.80;;;;;;;;;;5014303;28;20222;-62
2021/10/27 05:13:31;;;;;;;13.13;10.63;;;;;;;;;;5014025;28;20207;-62
2021/10/27 05:15:59;;;;;;;11.63;10.20;;;;;;;;;;5014197;28;20289;-63
2021/10/27 05:18:27;;;;;;;12.27;9.60;;;;;;;;;;5013642;28;20207;-62
2021/10/27 05:20:56;;;;;;;13.37;9.87;;;;;;;;;;5013881;28;20206;-62
2021/10/27 05:23:25;;;;;;;15.00;9.80;;;;;;;;;;5013535;28;20234;-62
2021/10/27 05:25:53;;;;;;;12.13;9.37;;;;;;;;;;5013852;28;20214;-63
2021/10/27 05:28:22;;;;;;;13.37;9.43;;;;;;;;;;5013604;28;20254;-63
2021/10/27 05:30:50;;;;;;;13.37;9.10;;;;;;;;;;5013845;28;20301;-62
2021/10/27 05:33:18;;;;;;;11.63;9.37;;;;;;;;;;5013595;28;20203;-62
2021/10/27 05:35:46;;;;;;;13.97;10.10;;;;;;;;;;5013579;28;20341;-62
2021/10/27 05:38:14;;;;;;;12.70;9.10;;;;;;;;;;5013323;28;20293;-63
2021/10/27 05:40:44;;;;;;;14.30;9.93;;;;;;;;;;5013570;28;20297;-62
2021/10/27 05:43:15;;;;;;;10.67;9.03;;;;;;;;;;5013194;28;20298;-63
2021/10/27 05:45:43;;;;;;;12.20;8.90;;;;;;;;;;5013431;28;20207;-62
2021/10/27 05:48:13;;;;;;;14.70;8.60;;;;;;;;;;5013209;28;20666;-62
2021/10/27 05:50:43;;;;;;;10.57;8.60;;;;;;;;;;5013396;28;20561;-62
2021/10/27 05:55:58;;;;;;;9.70;8.27;;;;;;;;;;5013211;28;20286;-62
2021/10/27 05:58:26;;;;;;;11.67;8.70;;;;;;;;;;5012934;28;20673;-62
2021/10/27 06:00:55;;;;;;;15.00;8.47;;;;;;;;;;5012988;28;20198;-63
2021/10/27 06:03:23;;;;;;;11.63;8.70;;;;;;;;;;5013191;28;20199;-62
2021/10/27 06:05:51;;;;;;;12.60;8.43;;;;;;;;;;5013125;28;20313;-62
2021/10/27 06:08:19;;;;;;;10.13;8.17;;;;;;;;;;5012747;28;20202;-62
2021/10/27 06:10:48;;;;;;;10.97;8.03;;;;;;;;;;5012567;28;20198;-61
2021/10/27 06:13:17;;;;;;;12.77;8.20;;;;;;;;;;5013699;28;20199;-62
2021/10/27 06:15:45;;;;;;;11.27;8.70;;;;;;;;;;5013058;28;20237;-62
2021/10/27 06:18:14;;;;;;;11.50;8.47;;;;;;;;;;5013159;28;20229;-62
2021/10/27 06:20:42;;;;;;;9.60;8.50;;;;;;;;;;5012781;28;20678;-62
2021/10/27 06:23:10;;;;;;;11.60;7.90;;;;;;;;;;5012854;28;20209;-62
2021/10/27 06:25:38;;;;;;;10.53;7.97;;;;;;;;;;5012823;28;20218;-62
2021/10/27 06:28:09;;;;;;;14.30;8.27;;;;;;;;;;5012797;28;20676;-62
2021/10/27 06:30:46;;;;;;;11.33;8.50;;;;;;;;;;5013055;28;20282;-62
2021/10/27 06:33:25;;;;;;;10.70;8.10;;;;;;;;;;5012800;28;20621;-63
2021/10/27 06:35:58;;;;;;;9.33;7.80;;;;;;;;;;5012627;28;20233;-62
2021/10/27 06:46:43;;;;;;;9.03;6.50;;;;;;;;;;5012754;28;20302;-62
2021/10/27 06:49:11;;;;;;;9.50;6.70;;;;;;;;;;5012387;28;20677;-63
2021/10/27 06:51:39;;;;;;;9.33;6.80;;;;;;;;;;5012514;28;20199;-63
2021/10/27 06:54:08;;;;;;;10.23;7.33;;;;;;;;;;5012535;28;20210;-62
2021/10/27 06:56:36;;;;;;;9.27;7.27;;;;;;;;;;5012749;28;20199;-63
2021/10/27 06:59:10;;;;;;;7.67;6.80;;;;;;;;;;5012786;28;20286;-63
2021/10/27 07:04:40;;;;;;;8.37;6.60;;;;;;;;;;5009405;28;20261;-63
2021/10/27 07:14:57;;;;;;;6.97;6.10;;;;;;;;;;5012319;28;20707;-63
2021/10/27 07:15:40;;;;;;;10.27;6.80;;;;;;;;;;5012634;28;20183;-62
2021/10/27 07:18:08;;;;;;;10.63;6.40;;;;;;;;;;5012063;28;20647;-64
2021/10/27 07:20:38;;;;;;;7.03;5.80;;;;;;;;;;5012270;28;20235;-63
2021/10/27 07:23:08;;;;;;;9.97;6.67;;;;;;;;;;5012965;28;20207;-61
2021/10/27 07:25:38;;;;;;;9.43;6.10;;;;;;;;;;5016099;28;20257;-62
2021/10/27 07:28:06;;;;;;;9.27;6.00;;;;;;;;;;5015918;28;20229;-62
2021/10/27 07:30:41;;;;;;;9.13;5.87;;;;;;;;;;5015907;28;20187;-62
2021/10/27 07:33:10;;;;;;;9.17;6.40;;;;;;;;;;5015614;28;20700;-62
2021/10/27 07:35:44;;;;;;;7.20;5.70;;;;;;;;;;5015643;28;20239;-63
2021/10/27 07:40:59;;;;;;;8.30;5.87;;;;;;;;;;5015570;28;20294;-63
2021/10/27 07:43:30;;;;;;;10.40;5.83;;;;;;;;;;5015478;28;20673;-63
2021/10/27 07:45:58;;;;;;;7.77;5.50;;;;;;;;;;5015401;28;20203;-62
2021/10/27 07:48:26;;;;;;;7.90;5.90;;;;;;;;;;5015750;28;20289;-63
2021/10/27 07:50:57;;;;;;;6.97;5.83;;;;;;;;;;5015710;28;20286;-63
2021/10/27 07:53:27;;;;;;;9.13;5.43;;;;;;;;;;5015250;28;20187;-63
2021/10/27 07:55:55;;;;;;;8.03;5.10;;;;;;;;;;5015801;28;20195;-62
2021/10/27 07:58:24;;;;;;;7.70;4.67;;;;;;;;;;5015295;28;20578;-62
2021/10/27 08:00:54;;;;;;;7.93;5.07;;;;;;;;;;5014991;28;20529;-63
2021/10/27 08:03:22;;;;;;;8.43;5.00;;;;;;;;;;5015146;28;20690;-62
2021/10/27 08:05:50;;;;;;;6.23;4.53;;;;;;;;;;5015236;28;20317;-64
2021/10/27 08:08:22;;;;;;;5.93;5.00;;;;;;;;;;5015074;28;20207;-64
2021/10/27 08:10:51;;;;;;;10.07;5.37;;;;;;;;;;5015160;28;20190;-63
2021/10/27 08:13:19;;;;;;;8.77;5.30;;;;;;;;;;5014932;28;20734;-63
2021/10/27 08:15:47;;;;;;;8.03;5.20;;;;;;;;;;5015206;28;20709;-63
2021/10/27 08:18:16;;;;;;;6.77;5.10;;;;;;;;;;5015380;28;20203;-62
2021/10/27 08:20:45;;;;;;;6.30;4.90;;;;;;;;;;5015292;28;20285;-63
2021/10/27 08:23:15;;;;;;;6.87;5.13;;;;;;;;;;5014661;28;20298;-64
2021/10/27 08:25:50;;;;;;;8.77;5.73;;;;;;;;;;5014771;28;20702;-63
2021/10/27 08:28:22;;;;;;;5.93;5.13;;;;;;;;;;5015058;28;20290;-63
2021/10/27 08:30:55;;;;;;;6.23;4.90;;;;;;;;;;5014640;28;20641;-63
2021/10/27 08:33:36;;;;;;;7.80;4.63;;;;;;;;;;5014656;28;20183;-62
2021/10/27 08:36:04;;;;;;;9.27;5.30;;;;;;;;;;5014927;28;20233;-63
2021/10/27 08:38:33;;;;;;;7.93;5.03;;;;;;;;;;5014324;28;20293;-63
2021/10/27 08:41:02;;;;;;;6.47;4.90;;;;;;;;;;5014716;28;20217;-63
2021/10/27 08:43:30;;;;;;;8.03;4.93;;;;;;;;;;5014199;28;20664;-64
2021/10/27 08:46:00;;;;;;;6.97;4.97;;;;;;;;;;5014518;28;20671;-63
2021/10/27 08:48:29;;;;;;;6.27;4.80;;;;;;;;;;5014860;28;20202;-62
2021/10/27 08:50:58;;;;;;;5.43;4.57;;;;;;;;;;5014496;28;20285;-63
2021/10/27 08:53:26;;;;;;;6.27;4.63;;;;;;;;;;5014222;28;20199;-64
2021/10/27 08:55:55;;;;;;;5.83;4.70;;;;;;;;;;5014554;28;20298;-63
2021/10/27 08:58:28;;;;;;;5.83;4.77;;;;;;;;;;5014449;28;20202;-64
2021/10/27 09:01:04;;;;;;;5.63;4.27;;;;;;;;;;5014281;28;20211;-64
2021/10/27 09:03:42;;;;;;;5.00;4.27;;;;;;;;;;5014247;28;20316;-64
2021/10/27 09:06:22;;;;;;;6.35;4.40;;;;;;;;;;5013969;28;20206;-63
2021/10/27 09:35:27;;;;;;;6.43;3.80;;;;;;;13.12;100.00;101062.13;5110528;28;20230;-63
2021/10/27 09:38:18;;;;;;;7.23;3.90;;;;;;;13.22;100.00;101055.22;5110063;28;20235;-62
2021/10/27 09:43:57;;;;;;;6.20;3.47;;;;;;;13.76;100.00;101051.16;5094130;28;20365;-62
2021/10/27 10:06:37;;;;;;;4.70;3.50;;;;;;;14.35;100.00;101056.97;5088903;28;20325;-62
2021/10/27 10:09:06;;;;;;;5.95;3.58;;;;;;;14.53;100.00;101054.31;5109260;28;20221;-62
2021/10/27 10:11:35;;;;;;;4.28;3.33;;;;;;;14.56;100.00;101057.41;5108896;28;20293;-63
2021/10/27 10:14:06;;;;;;;4.90;3.45;;;;;;;14.80;100.00;101054.88;5109294;28;20234;-63
2021/10/27 10:16:40;;;;;;;5.35;3.50;;;;;;;14.63;100.00;101058.16;5109032;28;20714;-63
2021/10/27 10:19:15;;;;;;;6.25;3.65;;;;;;;15.02;100.00;101065.06;5108767;28;20191;-63
2021/10/27 10:21:45;;;;;;;3.35;3.05;;;;;;;14.85;100.00;101061.28;5105028;28;20268;-63
2021/10/27 10:24:33;;;;;;;4.55;3.03;;;;;;;14.94;100.00;101068.06;5095455;28;20208;-62
2021/10/27 10:27:06;;;;;;;3.90;3.10;;;;;;;14.78;100.00;101062.41;5095632;28;20232;-62
2021/10/27 10:29:47;;;;;;;5.53;4.03;;;;;;;14.94;100.00;101061.81;5095405;28;20291;-61
2021/10/27 10:32:40;;;;;;;3.88;3.08;;;;;;;14.92;100.00;101066.63;5095238;28;20239;-63
2021/10/27 10:35:35;;;;;;;3.80;3.33;;;;;;;14.88;100.00;101071.69;5095423;28;20317;-63
2021/10/27 10:38:26;;;;;;;4.85;2.97;;;;;;;14.97;100.00;101061.38;5095083;28;20643;-62
2021/10/27 10:41:03;;;;;;;3.47;3.17;;;;;;;15.18;100.00;101055.47;5095266;28;20196;-62
2021/10/27 11:22:30;;;;;;;3.92;2.30;;;;;;;15.77;100.00;101044.66;5094559;28;20208;-63
2021/10/27 11:25:05;;;;;;;2.35;2.15;;;;;;;15.84;100.00;101040.81;5094499;28;20291;-65
2021/10/27 11:39:30;;;;;;;4.55;2.40;;;;;;;15.82;100.00;101026.63;5094328;28;20242;-63
2021/10/27 11:42:05;;;;;;;3.17;2.28;;;;;;;15.78;100.00;101025.41;5094089;28;20272;-64
2021/10/27 11:44:36;;;;;;;4.43;2.33;;;;;;;15.82;100.00;101036.66;5094300;28;20279;-63
2021/10/27 11:47:08;;;;;;;5.97;3.50;;;;;;;15.94;100.00;101033.97;5094255;28;20190;-63
2021/10/27 11:49:40;;;;;;;2.67;2.00;;;;;;;16.13;100.00;101028.22;5093992;28;20601;-62
2021/10/27 11:52:09;;;;;;;2.72;2.05;;;;;;;16.01;100.00;101026.53;5094011;28;20200;-63
2021/10/27 11:54:38;;;;;;;2.70;1.95;;;;;;;16.13;100.00;101032.81;5093976;28;20199;-63
2021/10/27 11:57:11;;;;;;;4.00;2.00;;;;;;;16.29;100.00;101024.78;5093967;28;20290;-63
2021/10/27 11:59:43;;;;;;;2.20;1.90;;;;;;;16.17;100.00;101021.22;5093977;28;20275;-64
2021/10/27 12:02:13;;;;;;;3.08;1.65;;;;;;;16.29;100.00;101021.22;5093891;28;20208;-63
2021/10/27 12:04:42;;;;;;;5.88;3.70;;;;;;;16.24;100.00;101019.22;5093782;28;20204;-63
2021/10/27 12:07:15;;;;;;;4.00;2.40;;;;;;;16.14;100.00;101027.16;5093693;28;20303;-62
2021/10/27 12:09:52;;;;;;;2.10;1.90;;;;;;;16.22;100.00;101034.16;5093469;28;20185;-63
2021/10/27 12:15:40;;;;;;;3.53;2.20;;;;;;;16.11;100.00;101024.91;5093781;28;20242;-63
2021/10/27 12:18:12;;;;;;;2.60;1.98;;;;;;;16.37;100.00;101019.00;5093648;28;20604;-63
2021/10/27 12:20:44;;;;;;;3.80;2.20;;;;;;;16.25;100.00;101028.22;5093645;28;20187;-63
2021/10/27 12:23:18;;;;;;;3.67;2.35;;;;;;;16.17;100.00;101010.34;5093162;28;20176;-63
2021/10/27 12:25:47;;;;;;;2.28;1.88;;;;;;;16.27;100.00;101010.59;5093345;28;20212;-63
2021/10/27 12:28:29;;;;;;;2.50;1.88;;;;;;;16.44;99.74;101013.47;5093556;28;20246;-63
2021/10/27 12:30:58;;;;;;;2.30;2.10;;;;;;;16.28;100.00;101016.88;5093448;28;20282;-63
2021/10/27 12:33:41;;;;;;;2.67;1.77;;;;;;;16.19;99.50;101010.13;5093659;28;20295;-63
2021/10/27 12:36:25;;;;;;;3.80;1.73;;;;;;;16.31;99.16;101009.06;5093366;28;20191;-63
2021/10/27 12:39:10;;;;;;;3.88;1.70;;;;;;;16.34;99.33;101002.31;5093112;28;20628;-63
2021/10/27 12:41:39;;;;;;;1.98;1.58;;;;;;;16.29;99.25;101008.47;5093424;28;20267;-63
2021/10/27 12:44:23;;;;;;;3.20;1.63;;;;;;;16.30;99.54;100998.44;5093250;28;20211;-64
2021/10/27 12:47:10;;;;;;;2.20;1.83;;;;;;;16.58;98.55;100996.69;5091947;28;20291;-63
2021/10/27 12:49:41;;;;;;;3.20;1.80;;;;;;;16.56;98.27;101004.25;5093161;28;20283;-63
2021/10/27 12:52:29;;;;;;;3.58;2.00;;;;;;;16.57;97.61;101000.47;5093078;28;20295;-63
2021/10/27 12:55:26;;;;;;;2.08;1.67;;;;;;;16.30;99.04;100991.13;5092808;28;20694;-63
2021/10/27 12:58:05;;;;;;;3.10;1.80;;;;;;;16.48;98.38;101001.91;5084091;28;20633;-63
2021/10/27 13:00:58;;;;;;;2.00;1.80;;;;;;;16.84;97.24;100995.34;5093135;28;20192;-63
2021/10/27 13:03:57;;;;;;;4.53;1.88;;;;;;;16.56;98.77;100993.38;5093132;28;20176;-62
2021/10/27 13:06:39;;;;;;;2.00;1.85;;;;;;;16.60;99.19;100985.56;5092760;28;20204;-63
2021/10/27 13:15:05;;;;;;;2.78;1.70;;;;;;;16.65;99.15;100993.81;5072696;28;20268;-63
2021/10/27 13:18:01;;;;;;;2.65;1.85;;;;;;;16.43;100.00;100995.47;5072448;28;20191;-63
2021/10/27 13:20:49;;;;;;;2.97;1.92;;;;;;;16.40;100.00;100985.06;5072542;28;20280;-64
2021/10/27 13:23:43;;;;;;;2.38;1.77;;;;;;;16.32;100.00;100993.59;5072681;28;20192;-64
2021/10/27 13:31:48;;;;;;;4.38;2.30;;;;;;;16.18;100.00;100989.44;5054927;28;20220;-62
2021/10/27 13:34:16;;;;;;;4.97;2.65;;;;;;;16.07;100.00;100991.09;5072548;28;20204;-63
2021/10/27 13:36:45;;;;;;;2.60;2.40;;;;;;;15.87;100.00;100998.72;5074028;28;20288;-63
2021/10/27 13:39:15;;;;;;;6.88;3.78;;;;;;;15.93;100.00;100992.38;5092411;28;20202;-63
2021/10/27 13:41:48;;;;;;;3.47;2.92;;;;;;;15.87;100.00;100993.31;5092419;28;20240;-62
2021/10/27 13:44:19;;;;;;;3.55;2.42;;;;;;;15.55;100.00;100989.22;5092833;28;20242;-64
2021/10/27 13:46:59;;;;;;;6.05;2.53;;;;;;;15.28;100.00;100985.19;5092454;28;20279;-63
2021/10/27 13:58:09;;;;;;;3.55;2.00;;;;;;;15.38;100.00;100974.59;5094353;28;20733;-64
2021/10/27 14:06:14;;;;;;;3.22;2.13;;;;;;;15.46;100.00;100972.41;5075724;28;20663;-63
2021/10/27 14:08:56;;;;;;;5.68;2.30;;;;;;;15.18;100.00;100980.31;5093954;28;20208;-63
2021/10/27 14:11:31;;;;;;;4.05;2.13;;;;;;;15.23;100.00;100972.31;5095759;28;20242;-63
2021/10/27 14:14:08;;;;;;;2.97;2.10;;;;;;;15.06;100.00;100967.72;5096172;28;20609;-64
2021/10/27 14:22:35;;;;;;;2.28;2.08;;;;;;;14.91;100.00;100965.44;5095905;28;20279;-63
2021/10/27 14:50:48;;;;;;;3.35;2.47;;;;;;;14.84;100.00;100939.41;5095148;28;20220;-62
2021/10/27 14:59:18;;;;;;;2.63;2.38;;;;;;;14.86;100.00;100943.56;5094926;28;20282;-63
2021/10/27 15:21:16;;;;;;;2.70;2.22;;;;;;;14.35;100.00;100953.97;5087155;28;20279;-62
2021/10/27 15:23:56;;;;;;;2.70;2.30;;;;;;;14.21;100.00;100953.25;5094354;28;20183;-63
2021/10/27 15:29:22;;;;;;;3.50;2.55;;;;;;;14.07;100.00;100959.03;5094601;28;20516;-64
2021/10/27 15:32:15;;;;;;;4.20;2.30;;;;;;;14.01;100.00;100965.31;5094031;28;20195;-63
2021/10/27 15:35:00;;;;;;;2.95;2.15;;;;;;;14.16;100.00;100958.50;5094388;28;20271;-62
2021/10/27 15:40:40;;;;;;;4.38;2.22;;;;;;;14.10;100.00;100964.84;5094184;28;20271;-64
2021/10/27 15:51:49;;;;;;;4.22;2.10;;;;;;;13.95;100.00;100963.50;5075595;28;20239;-63
2021/10/27 15:54:17;;;;;;;3.22;2.50;;;;;;;13.91;100.00;100965.00;5093707;28;20200;-63
2021/10/27 15:56:47;;;;;;;3.60;2.20;;;;;;;13.95;100.00;100963.50;5094034;28;20287;-63
2021/10/27 15:59:16;;;;;;;5.43;2.40;;;;;;;13.89;100.00;100973.34;5093683;28;20665;-64
2021/10/27 16:01:44;;;;;;;3.22;2.70;;;;;;;13.87;100.00;100971.91;5093901;28;20303;-64
2021/10/27 16:04:13;;;;;;;3.57;2.60;;;;;;;13.91;100.00;100971.25;5093868;28;20195;-62
2021/10/27 16:06:49;;;;;;;2.50;2.30;;;;;;;14.03;100.00;100974.06;5093726;28;20287;-63
2021/10/27 16:09:19;;;;;;;4.43;2.00;;;;;;;13.77;100.00;100972.41;5093823;28;20208;-63
2021/10/27 16:11:48;;;;;;;4.75;2.92;;;;;;;13.79;100.00;100975.72;5093378;28;20232;-63
2021/10/27 16:14:20;;;;;;;5.07;3.10;;;;;;;13.71;100.00;100978.72;5093644;28;20226;-63
2021/10/27 16:16:49;;;;;;;6.87;3.37;;;;;;;13.69;100.00;100978.09;5093402;28;20189;-64
2021/10/27 16:19:24;;;;;;;3.50;3.10;;;;;;;13.67;100.00;100963.94;5093499;28;20194;-63
2021/10/27 16:22:09;;;;;;;5.68;3.80;;;;;;;13.74;100.00;100962.00;5093616;28;20270;-63
2021/10/27 16:24:39;;;;;;;4.28;3.72;;;;;;;13.74;100.00;100958.47;5093538;28;20582;-63
2021/10/27 16:27:08;;;;;;;8.23;4.18;;;;;;;13.71;100.00;100965.16;5093619;28;20199;-62
2021/10/27 16:29:37;;;;;;;5.47;4.07;;;;;;;13.59;100.00;100966.09;5093405;28;20184;-63
2021/10/27 16:32:09;;;;;;;7.15;4.30;;;;;;;13.61;100.00;100962.13;5093316;28;20623;-62
2021/10/27 16:34:39;;;;;;;6.90;4.20;;;;;;;13.74;100.00;100964.72;5093240;28;20216;-63
2021/10/27 16:37:26;;;;;;;5.38;3.90;;;;;;;13.69;100.00;100967.25;5093262;28;20616;-63
2021/10/27 16:39:55;;;;;;;4.20;3.80;;;;;;;13.67;100.00;100969.34;5092856;28;20219;-63
2021/10/27 16:42:25;;;;;;;4.63;4.17;;;;;;;13.73;100.00;100965.78;5093245;28;20283;-63
2021/10/27 16:44:54;;;;;;;5.50;4.10;;;;;;;13.65;100.00;100967.94;5093208;28;20295;-63
2021/10/27 16:47:22;;;;;;;6.13;4.17;;;;;;;13.63;100.00;100967.31;5093154;28;20291;-63
2021/10/27 16:49:51;;;;;;;5.27;4.10;;;;;;;13.74;100.00;100967.44;5092819;28;20686;-61
2021/10/27 16:52:19;;;;;;;4.57;4.03;;;;;;;13.70;100.00;100968.09;5092914;28;20211;-63
2021/10/27 16:54:49;;;;;;;5.22;3.85;;;;;;;13.53;100.00;100975.91;5092510;28;20324;-63
2021/10/27 16:57:17;;;;;;;4.33;3.90;;;;;;;13.50;100.00;100970.13;5092895;28;20214;-62
2021/10/27 16:59:46;;;;;;;5.05;4.25;;;;;;;13.47;100.00;100979.50;5093096;28;20593;-63
2021/10/27 17:02:14;;;;;;;4.80;4.30;;;;;;;13.48;100.00;100973.03;5093140;28;20286;-63
2021/10/27 17:04:44;;;;;;;4.13;3.72;;;;;;;13.55;100.00;100983.84;5092962;28;20192;-64
2021/10/27 17:07:13;;;;;;;5.40;4.37;;;;;;;13.53;100.00;100983.22;5092814;28;20239;-64
2021/10/27 17:09:42;;;;;;;6.40;4.07;;;;;;;13.50;100.00;100983.66;5092313;28;20600;-64
2021/10/27 17:12:12;;;;;;;4.05;3.65;;;;;;;13.47;100.00;100974.06;5093047;28;20185;-63
2021/10/27 17:14:42;;;;;;;5.57;4.07;;;;;;;13.58;100.00;100978.78;5092764;28;20272;-64